Carmel-by-the-Sea, CA

7:32 PM PDT on September 21, 2014 (GMT -0700)
Watsonville Municipal | Change Station
CLOSE
Current Station
Airport
Location: Watsonville,
Elevation: 161 ft
Nearby Weather Stations

Elev 161 ft 36.94 °N, 121.79 °W | Updated 11 minutes ago

Overcast
Overcast
65 °F
Feels Like 65 °F
N
7
Wind Variable Wind from South

Today
High -- | Low -- °F
--% Chance of Precip.
Yesterday
High -- | Low -- °F
Precip. -- in
6:54 AM 7:05 PM
Waning Crescent, 4% visible
Pressure 30.01 in
Visibility 10.0 miles
Clouds Scattered Clouds 2000 ft
Dew Point 58 °F
Humidity 78%
Rainfall 0.00 in
Snow Depth 0 in , 0 in , 1 in
UV 0 out of 12
Pollen 3.80 out of 12
Air Quality Not available.
Flu Activity Not available.
SPECI KWVI 220221Z AUTO 18006KT 10SM SCT020 18/14 A3001 RMK AO2 T01830144

More Conditions Fewer Conditions

Pressure 30.01 in
Visibility 10.0 miles
Clouds Scattered Clouds 2000 ft
Dew Point 58 °F
Humidity 78%
Rainfall 0.00 in
Snow Depth 0 in , 0 in , 1 in
UV 0 out of 12
Pollen 3.80 out of 12
Air Quality Not available.
Flu Activity Not available.
SPECI KWVI 220221Z AUTO 18006KT 10SM SCT020 18/14 A3001 RMK AO2 T01830144

More Conditions Fewer Conditions

10-Day Weather Forecast

Almanac

Astronomy

Sep. 21, 2014 Rise Set
Actual Time 6:54 AM PDT 7:05 PM PDT
Civil Twilight 6:28 AM PDT 7:31 PM PDT
Nautical Twilight 5:58 AM PDT 8:01 PM PDT
Astronomical Twilight 5:28 AM PDT 8:32 PM PDT
Moon 4:36 AM PDT (9/21) 5:42 PM PDT (9/21)
Length of Visible Light 13h 02m
Length of Day
12h 11m
Tomorrow will be 2m 18s shorter.
Waning Crescent, 4% of the Moon is Illuminated
Today
Waning Crescent
Sep 24
New
Oct 1
First Quarter
Oct 8
Full
Oct 15
Last Quarter

Today's Extremes

State Highs State Lows

Community

WunderPhotos

Upload Photos

1,755,367 photos uploaded!

WunderBlogs® & News

Nearby

Snow Depth

Station Depth Elevation
Forestdale Creek 0 in 8029 ft
Hagan's Meadow 0 in 8000 ft
Summit Meadow 1 in 9122 ft
Spratt Creek 0 in 6200 ft
Monitor Pass 0 in 8350 ft

Earthquake Activity

City Distance Mag. Time & Date
Sonoma, California 125 miles 2.7 1:17 PM PDT
2014-09-21
Livermore, California 77 miles 2.6 3:37 AM PDT
2014-09-19
Minimum magnitude displayed is 2.5.

Coastal Water Temperatures

Place Temperature
Monterey, CA 63.0 °F
Port San Luis, CA 61.0 °F

Nearby Weather Stations